Latest Weather Observations for Noarlunga

IDS60801

Issued at 6:05 pm CDT Sunday 26 October 2014 (issued every 30 minutes, with the page automatically refreshed every 10 minutes)

About weather observations | Map of weather stations | Latest weather observations for SA | Other Formats
Station Details ID: 023885 Name: NOARLUNGA Lat: -35.16 Lon: 138.51 Height: 55.0 m
Data from the previous 72 hours. | See also: Recent months at Noarlunga
Date/Time
CDT
Temp
°C
App
Temp
°C
Dew
Point
Rel
Hum
%
Delta-T
°C
Wind Press
QNH
hPa
Press
MSL
hPa
Rain
since 9 am
mm
Dir
 
Spd
km/h
Gust
km/h
Spd
kts
Gust
kts
26/06:00pm 29.1 25.3 9.8 30 10.8 N 20 30 11 16 - - 0.2
26/05:30pm 28.6 25.6 10.8 33 10.1 N 17 24 9 13 - - 0.2
26/05:00pm 27.3 24.2 11.7 37 9.0 NNE 19 32 10 17 - - 0.2
26/04:30pm 26.3 23.4 12.4 42 8.0 NNE 19 30 10 16 - - 0.2
26/04:00pm 25.3 21.0 12.2 44 7.5 N 26 33 14 18 - - 0.2
26/03:30pm 25.5 22.1 12.4 44 7.6 N 22 30 12 16 - - 0.2
26/03:00pm 24.4 22.7 13.6 51 6.3 NNE 15 24 8 13 - - 0.2
26/02:30pm 22.9 23.1 14.2 58 5.1 NE 6 9 3 5 - - 0.2
26/02:00pm 24.3 23.0 12.6 48 6.7 NW 11 15 6 8 - - 0.0
26/01:30pm 24.8 21.5 11.7 44 7.4 N 20 32 11 17 - - 0.0
26/01:00pm 25.5 21.6 10.9 40 8.2 N 22 35 12 19 - - 0.0
26/12:30pm 25.1 21.5 12.0 44 7.5 N 22 33 12 18 - - 0.0
26/12:00pm 26.3 22.1 11.2 38 8.6 N 24 35 13 19 - - 0.0
26/11:30am 25.4 23.8 11.6 42 7.9 N 11 20 6 11 - - 0.0
26/11:00am 23.9 21.6 11.6 46 6.9 NE 15 24 8 13 - - 0.0
26/10:30am 22.9 19.9 10.7 46 6.8 NE 17 26 9 14 - - 0.0
26/10:00am 23.0 21.9 10.8 46 6.8 NNE 7 15 4 8 - - 0.0
26/09:30am 20.8 18.6 12.2 58 4.8 ENE 15 24 8 13 - - 0.0
26/09:00am 18.0 15.5 12.2 69 3.2 NE 17 26 9 14 - - 0.0
26/08:30am 16.2 15.0 12.9 81 1.8 N 11 20 6 11 - - 0.0
26/08:00am 15.7 14.0 12.6 82 1.7 E 13 19 7 10 - - 0.0
26/07:30am 16.0 15.6 12.4 79 2.0 NNE 6 7 3 4 - - 0.0
26/07:00am 14.9 13.1 10.7 76 2.2 NW 11 17 6 9 - - 0.0
26/06:30am 14.0 13.3 10.0 77 2.1 E 4 6 2 3 - - 0.0
26/06:00am 13.1 12.6 9.5 79 1.8 E 2 4 1 2 - - 0.0
26/05:30am 13.0 11.6 9.6 80 1.7 ESE 7 11 4 6 - - 0.0
26/05:00am 13.2 12.0 9.5 78 1.9 ESE 6 9 3 5 - - 0.0
26/04:30am 14.0 12.9 9.8 76 2.2 E 6 7 3 4 - - 0.0
26/04:00am 13.8 12.5 9.8 77 2.1 E 7 11 4 6 - - 0.0
26/03:30am 13.3 12.0 9.9 80 1.8 ESE 7 11 4 6 - - 0.0
26/03:00am 13.3 12.5 9.5 78 1.9 E 4 6 2 3 - - 0.0
26/02:30am 13.0 12.6 9.6 80 1.7 SE 2 6 1 3 - - 0.0
26/02:00am 13.1 11.8 9.9 81 1.6 E 7 11 4 6 - - 0.0
26/01:30am 13.7 12.7 10.3 80 1.8 ENE 6 11 3 6 - - 0.0
26/01:00am 13.8 12.7 10.6 81 1.7 E 7 11 4 6 - - 0.0
26/12:30am 13.9 13.3 10.5 80 1.8 E 4 7 2 4 - - 0.0
26/12:00am 14.1 12.6 10.7 80 1.8 ESE 9 15 5 8 - - 0.0
 
Date/Time
CDT
Temp
°C
App
Temp
°C
Dew
Point
Rel
Hum
%
Delta-T
°C
Wind Press
QNH
hPa
Press
MSL
hPa
Rain
since 9 am
mm
Dir
 
Spd
km/h
Gust
km/h
Spd
kts
Gust
kts
25/11:30pm 14.3 11.8 11.1 81 1.7 E 15 22 8 12 - - 0.0
25/11:00pm 14.5 12.0 11.1 80 1.8 E 15 19 8 10 - - 0.0
25/10:30pm 14.7 12.2 11.1 79 1.9 ESE 15 20 8 11 - - 0.0
25/10:00pm 15.1 12.6 11.1 77 2.1 E 15 22 8 12 - - 0.0
25/09:30pm 15.6 12.7 11.0 74 2.5 E 17 24 9 13 - - 0.0
25/09:00pm 16.3 14.1 10.8 70 2.9 E 13 19 7 10 - - 0.0
25/08:30pm 16.8 15.0 10.9 68 3.2 ESE 11 15 6 8 - - 0.0
25/08:00pm 17.7 15.9 11.0 65 3.6 SE 11 15 6 8 - - 0.0
25/07:30pm 19.1 19.5 12.4 65 3.7 N 2 2 1 1 - - 0.0
25/07:00pm 20.2 20.4 13.2 64 4.0 W 4 6 2 3 - - 0.0
25/06:30pm 20.6 20.3 13.3 63 4.2 W 7 9 4 5 - - 0.0
25/06:00pm 21.0 20.4 12.4 58 4.9 WNW 7 9 4 5 - - 0.0
25/05:30pm 21.0 20.7 13.2 61 4.5 W 7 13 4 7 - - 0.0
25/05:00pm 21.2 19.5 12.6 58 4.9 WNW 13 19 7 10 - - 0.0
25/04:30pm 21.7 20.6 10.5 49 6.1 WSW 7 13 4 7 - - 0.0
25/04:00pm 21.5 20.1 10.9 51 5.8 WSW 9 15 5 8 - - 0.0
25/03:30pm 21.0 19.3 11.3 54 5.4 WSW 11 20 6 11 - - 0.0
25/03:00pm 20.6 18.1 11.0 54 5.3 WSW 15 22 8 12 - - 0.0
25/02:30pm 21.1 19.1 11.4 54 5.4 W 13 20 7 11 - - 0.0
25/02:00pm 21.0 18.8 12.2 57 5.0 W 15 20 8 11 - - 0.0
25/01:30pm 21.1 19.4 12.3 57 5.0 W 13 20 7 11 - - 0.0
25/01:00pm 21.6 19.7 13.0 58 4.9 WSW 15 20 8 11 - - 0.0
25/12:30pm 21.7 20.0 11.1 51 5.9 W 11 20 6 11 - - 0.0
25/12:00pm 22.1 20.7 12.1 53 5.6 W 11 17 6 9 - - 0.0
25/11:30am 21.1 20.1 12.3 57 5.0 WNW 9 15 5 8 - - 0.0
25/11:00am 21.2 20.8 12.9 59 4.7 WNW 7 13 4 7 - - 0.0
25/10:30am 21.3 19.6 12.4 57 5.0 W 13 17 7 9 - - 0.0
25/10:00am 22.3 22.2 12.0 52 5.8 SSE 4 7 2 4 - - 0.0
25/09:30am 20.8 19.9 11.4 55 5.2 ESE 7 11 4 6 - - 0.0
25/09:00am 19.3 17.7 11.6 61 4.2 ESE 11 19 6 10 - - 0.0
25/08:30am 18.0 15.7 11.8 67 3.4 ESE 15 20 8 11 - - 0.0
25/08:00am 16.8 14.4 11.5 71 2.9 E 15 20 8 11 - - 0.0
25/07:30am 15.5 13.1 11.3 76 2.3 E 15 20 8 11 - - 0.0
25/07:00am 15.1 12.7 11.3 78 2.0 E 15 26 8 14 - - 0.0
25/06:30am 14.4 11.9 11.0 80 1.8 E 15 24 8 13 - - 0.0
25/06:00am 14.5 12.3 10.9 79 1.9 E 13 20 7 11 - - 0.0
25/05:30am 14.5 12.0 10.9 79 1.9 E 15 20 8 11 - - 0.0
25/05:00am 14.7 11.4 10.9 78 2.0 E 19 26 10 14 - - 0.0
25/04:30am 14.8 12.2 10.8 77 2.1 E 15 24 8 13 - - 0.0
25/04:00am 15.1 11.8 10.9 76 2.2 E 19 28 10 15 - - 0.0
25/03:30am 15.1 12.2 10.9 76 2.2 E 17 26 9 14 - - 0.0
25/03:00am 15.3 12.1 11.1 76 2.2 ENE 19 26 10 14 - - 0.0
25/02:30am 15.3 12.1 11.3 77 2.1 E 19 28 10 15 - - 0.0
25/02:00am 15.4 12.0 11.4 77 2.2 E 20 32 11 17 - - 0.0
25/01:30am 15.6 12.0 11.8 78 2.1 E 22 37 12 20 - - 0.0
25/01:00am 15.7 12.1 11.9 78 2.1 E 22 35 12 19 - - 0.0
25/12:30am 15.7 13.1 11.9 78 2.1 E 17 28 9 15 - - 0.0
25/12:00am 15.8 13.5 11.8 77 2.2 ESE 15 24 8 13 - - 0.0
 
Date/Time
CDT
Temp
°C
App
Temp
°C
Dew
Point
Rel
Hum
%
Delta-T
°C
Wind Press
QNH
hPa
Press
MSL
hPa
Rain
since 9 am
mm
Dir
 
Spd
km/h
Gust
km/h
Spd
kts
Gust
kts
24/11:30pm 16.2 12.6 12.0 76 2.3 E 22 33 12 18 - - 0.0
24/11:00pm 16.5 13.4 12.3 76 2.3 E 20 28 11 15 - - 0.0
24/10:30pm 16.9 14.5 12.6 76 2.4 E 17 26 9 14 - - 0.0
24/10:00pm 17.4 14.4 12.5 73 2.7 E 20 30 11 16 - - 0.0
24/09:30pm 18.3 15.3 12.7 70 3.1 ESE 20 32 11 17 - - 0.0
24/09:00pm 19.4 16.6 12.7 65 3.8 E 19 28 10 15 - - 0.0
24/08:30pm 20.4 17.6 12.6 61 4.4 ESE 19 26 10 14 - - 0.0
24/08:00pm 21.1 17.7 12.5 58 4.9 SE 22 26 12 14 - - 0.0
24/07:30pm 20.4 19.6 11.6 57 4.9 S 7 17 4 9 - - 0.0
24/07:00pm 21.0 20.4 12.4 58 4.9 SW 7 13 4 7 - - 0.0
24/06:30pm 24.6 23.3 7.7 34 8.9 WSW 4 9 2 5 - - 0.0
24/06:00pm 25.4 23.9 8.4 34 9.2 W 6 9 3 5 - - 0.0
24/05:30pm 25.3 22.8 8.3 34 9.1 SSW 11 19 6 10 - - 0.0
24/05:00pm 26.8 22.8 6.8 28 10.6 SW 17 28 9 15 - - 0.0
24/04:30pm 27.9 23.7 3.6 21 12.2 SW 15 20 8 11 - - 0.0
24/04:00pm 28.6 24.5 4.2 21 12.4 SW 15 24 8 13 - - 0.0
24/03:30pm 29.8 26.9 1.3 16 13.9 WSW 6 13 3 7 - - 0.0
24/03:00pm 29.5 26.5 1.1 16 13.8 W 6 11 3 6 - - 0.0
24/02:30pm 29.0 26.3 3.8 20 12.8 WSW 7 11 4 6 - - 0.0
24/02:00pm 28.4 25.6 5.3 23 12.0 W 9 15 5 8 - - 0.0
24/01:30pm 28.0 24.9 5.6 24 11.7 W 11 17 6 9 - - 0.0
24/01:00pm 27.7 24.5 7.0 27 11.0 NNW 13 17 7 9 - - 0.0
24/12:30pm 27.6 24.6 7.5 28 10.8 NNW 13 20 7 11 - - 0.0
24/12:00pm 26.3 23.7 7.8 31 9.9 NNW 11 17 6 9 - - 0.0
24/11:30am 25.7 23.6 11.1 40 8.2 NW 13 19 7 10 - - 0.0
24/11:00am 25.2 24.1 12.1 44 7.5 W 9 15 5 8 - - 0.0
24/10:30am 24.2 23.3 12.5 48 6.7 W 9 13 5 7 - - 0.0
24/10:00am 22.5 21.9 12.4 52 5.7 W 7 11 4 6 - - 0.0
24/09:30am 21.5 21.5 12.4 56 5.2 WNW 4 6 2 3 - - 0.0
24/09:00am 18.9 19.2 12.2 65 3.7 WNW 2 4 1 2 - - 0.0
24/08:30am 18.0 18.2 11.8 67 3.4 N 2 6 1 3 - - 0.0
24/08:00am 16.6 16.0 12.4 76 2.3 ESE 7 9 4 5 - - 0.0
24/07:30am 14.6 13.8 11.6 82 1.6 ESE 7 11 4 6 - - 0.0
24/07:00am 14.0 13.7 11.3 84 1.4 SE 4 4 2 2 - - 0.0
24/06:30am 13.9 14.0 11.4 85 1.3 SE 2 4 1 2 - - 0.0
24/06:00am 13.6 13.3 11.3 86 1.2 SE 4 6 2 3 - - 0.0
24/05:30am 13.5 12.7 10.9 84 1.4 W 6 7 3 4 - - 0.0
24/05:00am 14.1 13.5 11.6 85 1.3 NE 6 7 3 4 - - 0.0
24/04:30am 14.0 14.1 11.5 85 1.3 NE 2 4 1 2 - - 0.0
24/04:00am 14.1 13.9 11.8 86 1.2 NNE 4 4 2 2 - - 0.0
24/03:30am 13.6 13.6 11.3 86 1.2 E 2 4 1 2 - - 0.0
24/03:00am 13.8 13.5 11.5 86 1.2 NE 4 6 2 3 - - 0.0
24/02:30am 13.9 14.0 11.6 86 1.2 NE 2 4 1 2 - - 0.0
24/02:00am 13.8 13.8 11.3 85 1.3 NE 2 4 1 2 - - 0.0
24/01:30am 13.8 13.5 11.3 85 1.3 NE 4 6 2 3 - - 0.0
24/01:00am 14.2 14.0 11.7 85 1.3 ENE 4 4 2 2 - - 0.0
24/12:30am 14.7 15.4 12.2 85 1.4 CALM 0 0 0 0 - - 0.0
24/12:00am 14.9 14.9 12.4 85 1.4 NNW 4 6 2 3 - - 0.0
 
Date/Time
CDT
Temp
°C
App
Temp
°C
Dew
Point
Rel
Hum
%
Delta-T
°C
Wind Press
QNH
hPa
Press
MSL
hPa
Rain
since 9 am
mm
Dir
 
Spd
km/h
Gust
km/h
Spd
kts
Gust
kts
23/11:30pm 15.3 14.9 12.4 83 1.6 WNW 6 7 3 4 - - 0.0
23/11:00pm 15.7 15.3 12.3 80 1.9 NW 6 7 3 4 - - 0.0
23/10:30pm 15.9 15.7 11.7 76 2.3 N 4 6 2 3 - - 0.0
23/10:00pm 16.4 17.0 12.0 75 2.4 CALM 0 0 0 0 - - 0.0
23/09:30pm 16.5 17.2 12.3 76 2.3 CALM 0 4 0 2 - - 0.0
23/09:00pm 16.9 17.0 12.6 76 2.4 NW 4 6 2 3 - - 0.0
23/08:30pm 17.4 17.4 12.3 72 2.8 WNW 4 4 2 2 - - 0.0
23/08:00pm 17.7 17.6 12.2 70 3.0 N 4 4 2 2 - - 0.0
23/07:30pm 18.0 18.0 12.5 70 3.1 NNW 4 4 2 2 - - 0.0
23/07:00pm 18.4 18.0 12.4 68 3.3 WNW 6 7 3 4 - - 0.0
23/06:30pm 19.1 18.7 12.4 65 3.7 W 6 9 3 5 - - 0.0

Other Formats:

Comma delimited format used in spreadsheet applications
http://www.bom.gov.au/fwo/IDS60801/IDS60801.94808.axf

JavaScript Object Notation format (JSON) in row-major order
http://www.bom.gov.au/fwo/IDS60801/IDS60801.94808.json